Time;durP1;ratioP1;P1;durP2;ratioP2;P2;SDS_P1;SDS_P2;PMS_P1;PMS_P2;Temp;Humidity;BMP_temperature;BMP_pressure;BME280_temperature;BME280_humidity;BME280_pressure;Samples;Min_cycle;Max_cycle;Signal;HPM_P1;HPM_P2
2023/05/06 00:01:31;;;;;;;14.57;10.38;;;10.40;93.20;;;;;;5090053;28;20020;-44
2023/05/06 00:03:58;;;;;;;15.43;11.88;;;10.30;93.10;;;;;;5054601;28;20033;-47
2023/05/06 00:06:26;;;;;;;17.10;11.02;;;10.30;93.00;;;;;;5070758;28;20063;-44
2023/05/06 00:08:53;;;;;;;15.50;11.18;;;10.30;93.20;;;;;;5070594;28;20048;-46
2023/05/06 00:11:20;;;;;;;16.13;12.50;;;10.40;93.30;;;;;;5071821;28;20435;-44
2023/05/06 00:13:47;;;;;;;18.92;11.00;;;10.40;93.30;;;;;;5074241;28;20033;-44
2023/05/06 00:16:14;;;;;;;15.43;11.57;;;10.40;93.30;;;;;;5077066;28;20525;-45
2023/05/06 00:18:40;;;;;;;15.05;11.90;;;10.40;93.30;;;;;;5060284;28;20434;-45
2023/05/06 00:21:10;;;;;;;19.77;12.63;;;10.40;93.20;;;;;;5078517;28;20028;-46
2023/05/06 00:23:37;;;;;;;;;;;10.40;93.20;;;;;;5091263;28;20039;-44
2023/05/06 00:26:04;;;;;;;19.15;12.60;;;10.40;93.20;;;;;;5054229;28;20257;-45
2023/05/06 00:28:32;;;;;;;15.43;12.32;;;10.40;93.20;;;;;;5071361;28;20036;-46
2023/05/06 00:31:02;;;;;;;20.45;13.32;;;10.40;93.20;;;;;;5072825;28;20085;-46
2023/05/06 00:33:29;;;;;;;21.42;13.20;;;10.40;93.20;;;;;;5076862;28;20048;-44
2023/05/06 00:35:55;;;;;;;27.15;14.35;;;10.40;93.10;;;;;;5075821;28;20465;-44
2023/05/06 00:38:22;;;;;;;26.75;14.25;;;10.30;93.00;;;;;;5092689;28;20063;-45
2023/05/06 00:40:49;;;;;;;19.25;13.68;;;10.30;93.10;;;;;;5093819;28;20763;-45
2023/05/06 00:43:17;;;;;;;19.45;13.77;;;10.30;93.10;;;;;;5064656;28;20102;-45
2023/05/06 00:45:44;;;;;;;25.55;15.05;;;10.20;93.10;;;;;;5076018;28;20665;-45
2023/05/06 00:48:12;;;;;;;20.83;12.32;;;10.20;93.00;;;;;;5091358;28;20066;-45
2023/05/06 00:50:39;;;;;;;16.58;11.75;;;10.20;93.20;;;;;;5057675;28;20033;-45
2023/05/06 00:53:08;;;;;;;16.48;11.02;;;10.30;93.20;;;;;;5094220;28;20043;-44
2023/05/06 00:55:36;;;;;;;21.00;12.48;;;10.30;93.30;;;;;;5094120;28;20020;-44
2023/05/06 00:58:07;;;;;;;15.55;12.60;;;10.30;93.20;;;;;;5087224;28;20016;-45
2023/05/06 01:00:34;;;;;;;21.73;13.23;;;10.40;93.20;;;;;;5067151;28;20325;-44
2023/05/06 01:03:00;;;;;;;15.63;11.65;;;10.40;93.20;;;;;;5093976;28;20078;-44
2023/05/06 01:05:34;;;;;;;16.13;12.70;;;10.30;93.30;;;;;;5091404;28;20449;-44
2023/05/06 01:08:31;;;;;;;14.38;12.20;;;10.30;93.40;;;;;;5054950;28;20128;-44
2023/05/06 01:11:08;;;;;;;18.55;13.18;;;10.40;93.30;;;;;;5045974;28;20076;-44
2023/05/06 01:14:00;;;;;;;17.35;11.90;;;10.40;93.30;;;;;;5053452;28;20032;-44
2023/05/06 01:16:29;;;;;;;26.58;13.43;;;10.40;93.30;;;;;;5040600;28;20034;-44
2023/05/06 01:19:05;;;;;;;14.07;11.63;;;10.30;93.10;;;;;;5075760;28;20105;-44
2023/05/06 01:21:33;;;;;;;17.13;12.60;;;10.30;93.10;;;;;;5070081;28;20036;-44
2023/05/06 01:24:00;;;;;;;20.05;12.35;;;10.20;92.90;;;;;;5093582;28;20337;-44
2023/05/06 01:26:30;;;;;;;18.27;11.55;;;10.10;93.00;;;;;;5078807;28;20029;-44
2023/05/06 01:28:57;;;;;;;17.42;12.07;;;10.20;93.10;;;;;;5072192;28;20021;-44
2023/05/06 01:31:44;;;;;;;17.25;11.55;;;10.20;93.20;;;;;;5058916;28;20042;-44
2023/05/06 01:34:30;;;;;;;17.13;12.30;;;10.20;93.20;;;;;;5088556;28;20032;-44
2023/05/06 01:37:33;;;;;;;15.20;10.65;;;10.20;93.20;;;;;;5079907;28;20345;-44
2023/05/06 01:40:06;;;;;;;15.27;12.40;;;10.20;93.30;;;;;;5093394;28;20039;-44
2023/05/06 01:42:35;;;;;;;20.23;13.38;;;10.30;93.30;;;;;;5056770;28;20028;-44
2023/05/06 01:45:03;;;;;;;15.18;12.07;;;10.30;93.20;;;;;;5046117;28;20532;-44
2023/05/06 01:47:31;;;;;;;20.90;13.30;;;10.30;93.20;;;;;;5090079;28;20132;-44
2023/05/06 01:50:01;;;;;;;20.00;14.35;;;10.30;93.20;;;;;;5061750;28;20037;-43
2023/05/06 01:52:28;;;;;;;17.70;14.02;;;10.30;93.10;;;;;;5088074;28;20402;-44
2023/05/06 01:54:55;;;;;;;18.50;14.57;;;10.30;93.20;;;;;;5069025;28;20033;-44
2023/05/06 01:57:24;;;;;;;20.67;14.65;;;10.30;93.00;;;;;;5052740;28;20048;-44
2023/05/06 01:59:51;;;;;;;22.65;14.35;;;10.30;93.10;;;;;;5092453;28;20020;-44
2023/05/06 02:02:18;;;;;;;17.35;13.45;;;10.20;93.00;;;;;;5089343;28;20115;-44
2023/05/06 02:04:45;;;;;;;17.42;14.52;;;10.20;93.10;;;;;;5074940;28;20063;-43
2023/05/06 02:07:12;;;;;;;18.92;13.93;;;10.30;93.10;;;;;;5090020;28;20069;-43
2023/05/06 02:09:38;;;;;;;17.95;13.50;;;10.30;93.30;;;;;;5073798;28;20048;-44
2023/05/06 02:12:05;;;;;;;20.23;14.63;;;10.30;93.30;;;;;;5052548;28;20029;-44
2023/05/06 02:14:32;;;;;;;21.63;14.95;;;10.30;93.20;;;;;;5052556;28;20029;-44
2023/05/06 02:17:03;;;;;;;19.63;15.32;;;10.20;93.00;;;;;;5081881;28;20398;-43
2023/05/06 02:19:30;;;;;;;19.33;15.32;;;10.20;93.10;;;;;;5073789;28;20021;-44
2023/05/06 02:21:57;;;;;;;18.55;15.02;;;10.20;93.10;;;;;;5070445;28;20028;-44
2023/05/06 02:24:25;;;;;;;17.48;13.38;;;10.10;93.10;;;;;;5081202;28;20098;-44
2023/05/06 02:26:52;;;;;;;20.10;14.70;;;10.10;93.10;;;;;;5072366;28;20025;-44
2023/05/06 02:29:19;;;;;;;19.92;15.63;;;10.00;93.00;;;;;;5064275;28;20044;-43
2023/05/06 02:31:46;;;;;;;16.55;13.80;;;9.90;93.00;;;;;;5078877;28;20039;-43
2023/05/06 02:34:13;;;;;;;22.05;15.80;;;10.00;93.10;;;;;;5078222;28;20454;-43
2023/05/06 02:36:40;;;;;;;21.25;16.45;;;9.90;93.20;;;;;;5061001;28;20033;-43
2023/05/06 02:39:07;;;;;;;23.45;16.30;;;9.90;93.30;;;;;;5091266;28;20085;-44
2023/05/06 02:41:34;;;;;;;21.15;17.40;;;9.90;93.40;;;;;;5075218;28;20029;-44
2023/05/06 02:44:03;;;;;;;22.92;18.33;;;9.90;93.50;;;;;;5066060;28;20119;-43
2023/05/06 02:46:33;;;;;;;20.52;17.05;;;10.00;93.50;;;;;;5087543;28;20517;-46
2023/05/06 02:49:00;;;;;;;;;;;10.00;93.60;;;;;;5073791;28;20048;-43
2023/05/06 02:51:26;;;;;;;25.05;17.80;;;10.10;93.60;;;;;;5059853;28;19978;-43
2023/05/06 02:53:53;;;;;;;19.67;16.83;;;10.20;93.70;;;;;;5091245;28;20488;-43
2023/05/06 02:56:20;;;;;;;26.00;18.83;;;10.10;93.60;;;;;;5064231;28;20070;-44
2023/05/06 02:58:47;;;;;;;21.92;18.33;;;10.10;93.60;;;;;;5051929;28;20021;-46
2023/05/06 03:01:14;;;;;;;20.13;16.75;;;10.20;93.60;;;;;;5052965;28;20056;-43
2023/05/06 03:03:41;;;;;;;24.05;19.45;;;10.20;93.60;;;;;;5061345;28;20112;-43
2023/05/06 03:06:07;;;;;;;22.65;19.80;;;10.20;93.60;;;;;;5086019;28;20468;-44
2023/05/06 03:08:34;;;;;;;23.38;18.63;;;10.20;93.70;;;;;;5092009;28;20063;-43
2023/05/06 03:11:01;;;;;;;27.40;19.55;;;10.20;93.60;;;;;;5089757;28;20040;-44
2023/05/06 03:13:26;;;;;;;19.95;16.85;;;10.30;93.70;;;;;;5058118;28;20078;-43
2023/05/06 03:15:53;;;;;;;19.73;16.25;;;10.20;93.60;;;;;;5051008;28;20024;-45
2023/05/06 03:18:21;;;;;;;21.40;16.17;;;10.30;93.60;;;;;;5064621;28;20485;-44
2023/05/06 03:20:50;;;;;;;23.35;16.08;;;10.30;93.70;;;;;;5064656;28;20343;-44
2023/05/06 03:23:16;;;;;;;26.02;16.85;;;10.30;93.70;;;;;;5088388;28;20080;-44
2023/05/06 03:25:42;;;;;;;17.77;14.20;;;10.30;93.70;;;;;;5060755;28;20497;-44
2023/05/06 03:28:10;;;;;;;22.45;14.18;;;10.30;93.60;;;;;;5051647;28;20104;-45
2023/05/06 03:30:36;;;;;;;19.83;14.50;;;10.30;93.60;;;;;;5057986;28;20028;-44
2023/05/06 03:33:04;;;;;;;19.35;15.63;;;10.30;93.60;;;;;;5093191;28;20035;-44
2023/05/06 03:35:31;;;;;;;21.00;15.75;;;10.30;93.60;;;;;;5056193;28;20041;-45
2023/05/06 03:37:58;;;;;;;23.67;14.88;;;10.30;93.60;;;;;;5082178;28;20027;-44
2023/05/06 03:40:29;;;;;;;21.10;15.93;;;10.30;93.60;;;;;;5093930;28;20460;-44
2023/05/06 03:42:56;;;;;;;21.63;15.60;;;10.30;93.60;;;;;;5074251;28;20043;-44
2023/05/06 03:45:23;;;;;;;24.48;16.58;;;10.20;93.60;;;;;;5058996;28;20024;-44
2023/05/06 03:47:50;;;;;;;22.83;15.85;;;10.30;93.70;;;;;;5079179;28;20052;-44
2023/05/06 03:50:19;;;;;;;19.60;14.32;;;10.30;93.60;;;;;;5055008;28;20021;-44
2023/05/06 03:52:46;;;;;;;26.00;16.95;;;10.30;93.50;;;;;;5090763;28;20036;-44
2023/05/06 03:55:13;;;;;;;21.40;14.85;;;10.20;93.50;;;;;;5055488;28;20468;-44
2023/05/06 03:57:39;;;;;;;23.20;16.40;;;10.20;93.50;;;;;;5054592;28;20095;-44
2023/05/06 04:00:07;;;;;;;24.88;16.85;;;10.20;93.60;;;;;;5056804;28;20036;-44
2023/05/06 04:02:37;;;;;;;22.48;16.27;;;10.20;93.70;;;;;;5094684;28;20361;-43
2023/05/06 04:05:03;;;;;;;21.88;16.80;;;10.30;93.70;;;;;;5088852;28;20032;-44
2023/05/06 04:07:30;;;;;;;22.20;16.02;;;10.30;93.70;;;;;;5074499;28;20032;-44
2023/05/06 04:09:59;;;;;;;21.92;14.68;;;10.30;93.70;;;;;;5094480;28;20048;-43
2023/05/06 04:12:26;;;;;;;23.20;16.77;;;10.30;93.70;;;;;;5052092;28;20041;-43
2023/05/06 04:14:53;;;;;;;22.70;17.30;;;10.30;93.60;;;;;;5054034;28;20087;-44
2023/05/06 04:17:20;;;;;;;27.20;17.55;;;10.30;93.70;;;;;;5089875;28;20024;-44
2023/05/06 04:19:52;;;;;;;25.08;16.40;;;10.40;93.70;;;;;;5062291;28;20033;-43
2023/05/06 04:22:19;;;;;;;22.02;16.98;;;10.40;93.70;;;;;;5088550;28;20036;-43
2023/05/06 04:24:50;;;;;;;24.27;17.50;;;10.40;93.70;;;;;;5075030;28;20422;-44
2023/05/06 04:27:17;;;;;;;20.27;17.25;;;10.40;93.60;;;;;;5087644;28;20035;-43
2023/05/06 04:29:43;;;;;;;25.67;16.52;;;10.40;93.70;;;;;;5094586;28;20032;-43
2023/05/06 04:32:10;;;;;;;30.38;17.70;;;10.50;93.70;;;;;;5064977;28;20051;-44
2023/05/06 04:34:40;;;;;;;22.52;15.55;;;10.50;93.70;;;;;;5055921;28;20025;-44
2023/05/06 04:37:09;;;;;;;21.80;16.40;;;10.50;93.60;;;;;;5065011;28;20376;-43
2023/05/06 04:39:38;;;;;;;26.67;18.60;;;10.60;93.70;;;;;;5056045;28;20161;-45
2023/05/06 04:42:05;;;;;;;21.43;17.17;;;10.50;93.60;;;;;;5070187;28;20441;-44
2023/05/06 04:44:32;;;;;;;25.17;16.45;;;10.60;93.60;;;;;;5074431;28;20651;-44
2023/05/06 04:46:59;;;;;;;24.50;17.23;;;10.60;93.60;;;;;;5071148;28;20035;-43
2023/05/06 04:49:25;;;;;;;30.00;18.48;;;10.70;93.50;;;;;;5056042;28;20028;-43
2023/05/06 04:51:51;;;;;;;22.55;17.48;;;10.70;93.50;;;;;;5054020;28;20034;-44
2023/05/06 04:54:18;;;;;;;24.10;18.23;;;10.80;93.60;;;;;;5073509;28;20342;-44
2023/05/06 04:56:44;;;;;;;28.45;20.70;;;10.80;93.50;;;;;;5073237;28;20035;-44
2023/05/06 04:59:10;;;;;;;23.83;18.58;;;10.80;93.40;;;;;;5073335;28;20067;-43
2023/05/06 05:01:37;;;;;;;25.48;17.52;;;10.90;93.30;;;;;;5074379;28;20052;-44
2023/05/06 05:04:03;;;;;;;24.55;18.30;;;10.90;93.30;;;;;;5073475;28;20079;-44
2023/05/06 05:06:30;;;;;;;24.40;17.27;;;11.00;93.30;;;;;;5070259;28;20082;-43
2023/05/06 05:08:57;;;;;;;28.65;18.33;;;11.10;93.30;;;;;;5071180;28;20045;-44
2023/05/06 05:11:23;;;;;;;31.90;17.52;;;11.10;92.90;;;;;;5074579;28;20024;-44
2023/05/06 05:13:50;;;;;;;29.00;16.77;;;11.10;92.40;;;;;;5071839;28;20081;-43
2023/05/06 05:16:17;;;;;;;27.05;16.55;;;11.10;92.40;;;;;;5061941;28;20108;-43
2023/05/06 05:18:46;;;;;;;22.70;15.68;;;11.10;92.30;;;;;;5073024;28;20043;-43
2023/05/06 05:21:13;;;;;;;17.10;13.65;;;11.20;92.30;;;;;;5069199;28;20028;-43
2023/05/06 05:23:40;;;;;;;21.35;16.20;;;11.30;92.30;;;;;;5071794;28;20036;-44
2023/05/06 05:26:09;;;;;;;21.00;15.63;;;11.40;92.20;;;;;;5072792;28;20381;-43
2023/05/06 05:28:42;;;;;;;17.23;13.77;;;11.60;92.30;;;;;;5070317;28;20086;-42
2023/05/06 05:31:09;;;;;;;20.52;15.45;;;11.70;91.90;;;;;;5075538;28;20035;-43
2023/05/06 05:33:37;;;;;;;20.40;17.10;;;11.70;91.10;;;;;;5093291;28;20500;-43
2023/05/06 05:36:04;;;;;;;24.02;16.92;;;11.70;91.20;;;;;;5093441;28;20042;-45
2023/05/06 05:38:31;;;;;;;24.17;14.23;;;11.80;91.10;;;;;;5088244;28;20032;-43
2023/05/06 05:40:58;;;;;;;20.08;14.88;;;11.60;90.70;;;;;;5087429;28;20025;-45
2023/05/06 05:43:25;;;;;;;20.17;15.00;;;11.60;90.60;;;;;;5089642;28;20032;-43
2023/05/06 05:45:52;;;;;;;18.85;14.85;;;11.40;90.40;;;;;;5090876;28;20036;-44
2023/05/06 05:48:19;;;;;;;22.15;15.57;;;11.40;90.20;;;;;;5059141;28;20056;-42
2023/05/06 05:50:48;;;;;;;21.67;14.88;;;11.30;90.60;;;;;;5052238;28;20401;-43
2023/05/06 05:53:15;;;;;;;16.75;14.95;;;11.30;90.80;;;;;;5064809;28;20062;-43
2023/05/06 05:55:45;;;;;;;20.15;14.95;;;11.40;91.10;;;;;;5075359;28;20684;-42
2023/05/06 05:58:14;;;;;;;19.90;14.95;;;11.50;91.40;;;;;;5072138;28;20040;-42
2023/05/06 06:00:41;;;;;;;24.15;16.70;;;11.60;91.30;;;;;;5070884;28;20076;-43
2023/05/06 06:03:08;;;;;;;20.85;14.95;;;11.70;90.90;;;;;;5077957;28;20020;-43
2023/05/06 06:05:34;;;;;;;22.75;14.45;;;11.70;90.80;;;;;;5092822;28;20114;-43
2023/05/06 06:08:02;;;;;;;19.95;14.30;;;11.80;90.80;;;;;;5078950;28;20167;-43
2023/05/06 06:10:29;;;;;;;19.92;14.93;;;11.90;90.50;;;;;;5069893;28;20342;-42
2023/05/06 06:12:57;;;;;;;17.27;13.45;;;11.90;90.00;;;;;;5055048;28;20051;-42
2023/05/06 06:15:24;;;;;;;20.90;14.45;;;11.80;90.00;;;;;;5062788;28;20453;-43
2023/05/06 06:17:54;;;;;;;21.58;14.57;;;11.70;89.40;;;;;;5052683;28;20025;-42
2023/05/06 06:20:21;;;;;;;21.45;15.35;;;11.60;89.30;;;;;;5072341;28;20444;-45
2023/05/06 06:22:48;;;;;;;22.88;16.17;;;11.50;89.40;;;;;;5069099;28;20461;-43
2023/05/06 06:25:13;;;;;;;21.15;14.75;;;11.50;89.60;;;;;;5092566;28;20036;-43
2023/05/06 06:27:40;;;;;;;18.80;15.30;;;11.50;89.70;;;;;;5068621;28;20040;-43
2023/05/06 06:30:07;;;;;;;22.58;16.63;;;11.50;90.00;;;;;;5074004;28;20442;-43
2023/05/06 06:32:34;;;;;;;22.77;15.35;;;11.60;90.00;;;;;;5061335;28;20037;-42
2023/05/06 06:35:01;;;;;;;18.92;15.82;;;11.70;90.20;;;;;;5068073;28;20474;-43
2023/05/06 06:37:28;;;;;;;17.45;14.25;;;11.70;89.90;;;;;;5059058;28;20089;-43
2023/05/06 06:39:55;;;;;;;20.35;15.52;;;11.70;89.60;;;;;;5084512;28;20449;-43
2023/05/06 06:42:22;;;;;;;19.23;15.05;;;11.70;88.90;;;;;;5092440;28;20043;-43
2023/05/06 06:44:48;;;;;;;20.25;14.65;;;11.50;89.20;;;;;;5068904;28;20322;-43
2023/05/06 06:47:15;;;;;;;17.77;14.30;;;11.60;89.50;;;;;;5085512;28;20099;-43
2023/05/06 06:49:42;;;;;;;16.35;13.82;;;11.50;89.60;;;;;;5084458;28;20468;-43
2023/05/06 06:52:09;;;;;;;15.32;13.73;;;11.50;89.40;;;;;;5065079;28;20372;-46
2023/05/06 06:54:37;;;;;;;15.85;13.20;;;11.40;89.70;;;;;;5071003;28;20028;-43
2023/05/06 06:57:05;;;;;;;16.35;13.30;;;11.40;89.80;;;;;;5086784;28;20117;-42
2023/05/06 06:59:32;;;;;;;17.30;13.63;;;11.40;89.80;;;;;;5070371;28;20025;-43
2023/05/06 07:01:59;;;;;;;18.58;14.50;;;11.30;89.60;;;;;;5055742;28;20056;-43
2023/05/06 07:04:25;;;;;;;21.95;15.20;;;11.30;90.00;;;;;;5062658;28;20463;-42
2023/05/06 07:06:51;;;;;;;18.23;14.65;;;11.40;90.00;;;;;;5051912;28;20083;-46
2023/05/06 07:09:18;;;;;;;18.20;15.35;;;11.40;89.80;;;;;;5054298;28;20148;-43
2023/05/06 07:11:47;;;;;;;21.25;15.38;;;11.40;89.70;;;;;;5078825;28;20086;-43
2023/05/06 07:14:12;;;;;;;20.13;14.13;;;11.40;89.70;;;;;;5074320;28;20085;-43
2023/05/06 07:16:39;;;;;;;20.88;14.45;;;11.50;89.70;;;;;;5075119;28;20401;-42
2023/05/06 07:19:06;;;;;;;18.10;13.88;;;11.50;89.30;;;;;;5057074;28;20028;-43
2023/05/06 07:21:33;;;;;;;15.40;13.32;;;11.70;88.70;;;;;;5073615;28;20443;-46
2023/05/06 07:24:00;;;;;;;16.88;13.55;;;11.70;88.30;;;;;;5073875;28;20028;-45
2023/05/06 07:26:27;;;;;;;13.82;10.95;;;11.80;88.90;;;;;;5073706;28;20025;-45
2023/05/06 07:28:53;;;;;;;17.73;14.10;;;12.00;88.50;;;;;;5071501;28;20056;-42
2023/05/06 07:31:19;;;;;;;17.88;13.50;;;12.00;87.70;;;;;;5072162;28;20102;-46
2023/05/06 07:33:49;;;;;;;20.75;14.88;;;12.00;87.70;;;;;;5072363;28;20116;-45
2023/05/06 07:36:19;;;;;;;16.27;12.68;;;12.00;87.00;;;;;;5073532;28;20025;-43
2023/05/06 07:38:46;;;;;;;18.67;12.65;;;12.10;87.20;;;;;;5073093;28;20461;-45
2023/05/06 07:41:13;;;;;;;19.83;13.30;;;12.30;87.20;;;;;;5059467;28;20028;-43
2023/05/06 07:43:39;;;;;;;20.38;13.13;;;12.40;87.20;;;;;;5082579;28;20028;-44
2023/05/06 07:46:06;;;;;;;14.88;11.68;;;12.40;87.00;;;;;;5064448;28;20410;-44
2023/05/06 07:48:32;;;;;;;18.42;13.43;;;12.50;87.30;;;;;;5063046;28;20810;-44
2023/05/06 07:50:59;;;;;;;13.57;11.85;;;12.70;86.90;;;;;;5049502;28;20036;-43
2023/05/06 07:53:26;;;;;;;15.63;11.85;;;12.70;86.70;;;;;;5059694;28;20373;-44
2023/05/06 07:55:56;;;;;;;19.08;12.32;;;12.70;86.00;;;;;;5069571;28;20104;-45
2023/05/06 07:58:23;;;;;;;16.67;12.25;;;12.60;85.40;;;;;;5049182;28;20024;-45
2023/05/06 08:00:49;;;;;;;15.90;11.40;;;12.60;86.00;;;;;;5066981;28;20038;-45
2023/05/06 08:03:18;;;;;;;13.18;11.45;;;12.50;85.50;;;;;;5074363;28;20477;-44
2023/05/06 08:05:48;;;;;;;14.02;10.30;;;12.40;85.80;;;;;;5055754;28;20047;-48
2023/05/06 08:08:14;;;;;;;16.27;10.85;;;12.30;86.50;;;;;;5073877;28;20044;-45
2023/05/06 08:10:44;;;;;;;19.85;12.57;;;12.40;86.40;;;;;;5068016;28;20315;-46
2023/05/06 08:13:12;;;;;;;15.70;10.60;;;12.20;86.50;;;;;;5081027;28;20403;-43
2023/05/06 08:15:39;;;;;;;15.80;12.35;;;12.20;87.00;;;;;;5063270;28;20025;-44
2023/05/06 08:18:07;;;;;;;19.27;13.82;;;12.10;86.70;;;;;;5065674;28;20495;-43
2023/05/06 08:20:33;;;;;;;17.83;13.70;;;12.00;86.80;;;;;;5072585;28;20033;-44
2023/05/06 08:23:00;;;;;;;15.95;13.05;;;11.90;86.70;;;;;;5071044;28;20021;-44
2023/05/06 08:25:27;;;;;;;17.42;13.35;;;11.90;87.20;;;;;;5068798;28;20035;-44
2023/05/06 08:27:53;;;;;;;15.38;12.23;;;11.90;87.20;;;;;;5068521;28;20043;-46
2023/05/06 08:30:20;;;;;;;17.80;11.23;;;12.00;87.20;;;;;;5062860;28;20033;-44
2023/05/06 08:32:47;;;;;;;15.40;12.55;;;12.20;87.40;;;;;;5067976;28;20028;-44
2023/05/06 08:35:14;;;;;;;15.05;11.90;;;12.30;86.60;;;;;;5070479;28;20028;-44
2023/05/06 08:37:43;;;;;;;16.70;12.30;;;12.20;86.10;;;;;;5066831;28;20036;-45
2023/05/06 08:40:22;;;;;;;16.52;11.88;;;12.30;85.90;;;;;;5074330;28;20056;-44
2023/05/06 08:42:49;;;;;;;12.65;11.02;;;12.50;86.20;;;;;;5074639;28;20044;-44
2023/05/06 08:45:18;;;;;;;13.07;10.90;;;12.80;86.00;;;;;;5068307;28;20473;-44
2023/05/06 08:47:46;;;;;;;12.80;9.93;;;13.10;85.10;;;;;;5065481;28;20032;-44
2023/05/06 08:50:13;;;;;;;13.43;10.18;;;13.30;84.50;;;;;;5066755;28;20017;-43
2023/05/06 08:52:40;;;;;;;12.63;10.43;;;13.40;83.40;;;;;;5044255;28;20028;-43
2023/05/06 08:55:08;;;;;;;15.80;10.27;;;13.50;83.10;;;;;;5053115;28;20040;-44
2023/05/06 08:57:39;;;;;;;13.30;10.60;;;13.60;82.90;;;;;;5061369;28;20148;-45
2023/05/06 09:00:09;;;;;;;12.80;11.07;;;13.80;82.20;;;;;;5063903;28;20098;-45
2023/05/06 09:02:37;;;;;;;13.55;10.32;;;13.80;80.70;;;;;;5060080;28;20028;-44
2023/05/06 09:05:05;;;;;;;13.95;11.13;;;13.70;81.90;;;;;;5046419;28;20021;-44
2023/05/06 09:07:32;;;;;;;12.65;10.38;;;13.80;81.30;;;;;;5059520;28;20511;-45
2023/05/06 09:09:59;;;;;;;13.88;10.00;;;14.00;82.40;;;;;;5060370;28;20052;-44
2023/05/06 09:12:28;;;;;;;14.32;10.95;;;14.40;81.40;;;;;;5065034;28;20171;-44
2023/05/06 09:14:55;;;;;;;13.07;9.38;;;14.50;78.20;;;;;;5066413;28;20013;-47
2023/05/06 09:17:24;;;;;;;14.13;10.35;;;14.60;79.10;;;;;;5058321;28;20043;-45
2023/05/06 09:19:52;;;;;;;10.67;9.57;;;14.90;79.50;;;;;;5073108;28;20162;-47
2023/05/06 09:22:23;;;;;;;11.77;9.55;;;15.20;79.40;;;;;;5059645;28;20400;-45
2023/05/06 09:24:55;;;;;;;13.95;10.32;;;15.40;77.30;;;;;;5060196;28;20028;-45
2023/05/06 09:27:26;;;;;;;11.25;9.13;;;15.20;76.00;;;;;;5050040;28;20048;-45
2023/05/06 09:30:06;;;;;;;12.73;9.23;;;15.20;77.30;;;;;;5061034;28;20078;-49
2023/05/06 09:32:34;;;;;;;9.93;8.43;;;15.10;77.60;;;;;;5061884;28;20032;-46
2023/05/06 09:35:01;;;;;;;13.48;9.93;;;15.10;78.10;;;;;;5065730;28;20036;-45
2023/05/06 09:37:29;;;;;;;14.93;10.38;;;15.20;78.20;;;;;;5060818;28;20032;-45
2023/05/06 09:39:59;;;;;;;13.93;10.32;;;15.10;77.30;;;;;;5057157;28;20055;-45
2023/05/06 09:42:28;;;;;;;14.93;10.75;;;14.90;77.00;;;;;;5062734;28;20028;-45
2023/05/06 09:45:01;;;;;;;12.85;10.20;;;14.70;77.10;;;;;;5060068;28;20021;-45
2023/05/06 09:47:33;;;;;;;11.93;10.55;;;14.60;78.30;;;;;;5063049;28;20032;-46
2023/05/06 09:50:04;;;;;;;14.25;10.93;;;15.10;79.70;;;;;;5054543;28;20116;-46
2023/05/06 09:52:32;;;;;;;13.00;11.35;;;15.00;76.00;;;;;;5057960;28;20430;-47
2023/05/06 09:55:00;;;;;;;13.75;11.02;;;14.90;77.80;;;;;;5054242;28;20020;-46
2023/05/06 09:57:29;;;;;;;13.63;12.10;;;14.80;76.90;;;;;;5061793;28;20028;-48
2023/05/06 09:59:57;;;;;;;13.18;9.95;;;15.20;77.40;;;;;;5042505;28;20036;-45
2023/05/06 10:02:26;;;;;;;13.98;11.80;;;15.30;76.10;;;;;;5066254;28;20107;-45
2023/05/06 10:04:55;;;;;;;15.23;9.85;;;15.50;76.30;;;;;;5058017;28;20052;-45
2023/05/06 10:07:24;;;;;;;12.68;9.65;;;15.80;74.80;;;;;;5066167;28;20144;-46
2023/05/06 10:09:52;;;;;;;15.70;10.60;;;15.90;75.20;;;;;;5059516;28;20067;-46
2023/05/06 10:12:19;;;;;;;13.18;10.05;;;15.80;74.20;;;;;;5058952;28;20473;-49
2023/05/06 10:14:46;;;;;;;11.50;10.13;;;15.70;75.00;;;;;;5048505;28;20070;-46
2023/05/06 10:17:17;;;;;;;14.00;10.40;;;15.70;75.70;;;;;;5057877;28;20039;-46
2023/05/06 10:19:45;;;;;;;10.60;9.50;;;15.70;75.00;;;;;;5066179;28;20067;-47
2023/05/06 10:22:36;;;;;;;13.65;9.30;;;15.50;75.70;;;;;;5060142;28;20025;-48
2023/05/06 10:25:32;;;;;;;10.10;9.02;;;15.70;74.60;;;;;;5062787;28;20028;-46
2023/05/06 10:28:00;;;;;;;12.07;8.93;;;16.20;74.80;;;;;;5058360;28;20018;-45
2023/05/06 10:30:32;;;;;;;9.85;8.85;;;16.50;74.60;;;;;;5029105;28;20029;-48
2023/05/06 10:33:04;;;;;;;11.63;8.27;;;16.60;73.50;;;;;;5068804;28;20033;-48
2023/05/06 10:35:42;;;;;;;9.70;8.05;;;16.90;70.90;;;;;;5050144;28;20036;-47
2023/05/06 10:38:31;;;;;;;11.88;9.02;;;16.60;72.50;;;;;;5055107;28;20021;-48
2023/05/06 10:40:59;;;;;;;11.18;9.70;;;16.30;73.40;;;;;;5061109;28;20040;-48
2023/05/06 10:43:30;;;;;;;11.60;9.70;;;16.30;74.20;;;;;;5063463;28;20450;-46
2023/05/06 10:46:15;;;;;;;12.48;11.07;;;16.30;72.30;;;;;;5047755;28;20422;-51
2023/05/06 10:49:09;;;;;;;10.55;9.40;;;16.50;73.90;;;;;;5064299;28;20064;-48
2023/05/06 10:52:12;;;;;;;11.15;8.88;;;16.70;75.20;;;;;;5067151;28;20040;-47
2023/05/06 10:54:50;;;;;;;10.50;9.43;;;17.10;73.60;;;;;;5062608;28;20033;-49
2023/05/06 10:57:19;;;;;;;12.07;10.63;;;16.90;72.80;;;;;;5071618;28;20090;-45
2023/05/06 10:59:47;;;;;;;12.15;9.50;;;17.20;73.70;;;;;;5069359;28;20020;-46
2023/05/06 11:02:18;;;;;;;11.07;9.65;;;17.60;74.10;;;;;;5063195;28;20039;-46
2023/05/06 11:04:52;;;;;;;12.23;10.23;;;18.20;71.20;;;;;;5064362;28;20028;-46
2023/05/06 11:07:23;;;;;;;12.00;10.75;;;18.30;69.20;;;;;;5063369;28;20036;-45
2023/05/06 11:10:09;;;;;;;12.02;10.82;;;17.80;69.70;;;;;;5069083;28;20044;-46
2023/05/06 11:12:52;;;;;;;13.07;11.40;;;17.50;71.60;;;;;;5068987;28;20033;-48
2023/05/06 11:15:40;;;;;;;13.27;11.82;;;17.40;71.10;;;;;;5046726;28;20025;-46
2023/05/06 11:18:25;;;;;;;11.85;10.65;;;17.20;71.20;;;;;;5061201;28;20056;-46
2023/05/06 11:21:34;;;;;;;11.40;10.15;;;17.10;70.90;;;;;;5064664;28;20500;-48
2023/05/06 11:24:02;;;;;;;12.20;10.90;;;16.60;72.50;;;;;;5061983;28;20056;-50
2023/05/06 11:26:32;;;;;;;14.82;13.27;;;16.30;72.40;;;;;;5061575;28;20039;-50
2023/05/06 11:29:01;;;;;;;13.15;11.85;;;16.10;73.80;;;;;;5062026;28;20461;-48
2023/05/06 11:31:37;;;;;;;12.95;11.55;;;15.90;75.30;;;;;;5064532;28;20078;-51
2023/05/06 11:34:08;;;;;;;14.10;12.57;;;15.90;75.60;;;;;;5057930;28;20451;-49
2023/05/06 11:36:36;;;;;;;14.88;12.93;;;15.90;74.40;;;;;;5062809;28;20330;-51
2023/05/06 11:39:09;;;;;;;14.02;12.07;;;15.90;75.00;;;;;;5061392;28;20039;-47
2023/05/06 11:41:39;;;;;;;14.35;12.95;;;15.90;74.30;;;;;;5059918;28;20388;-53
2023/05/06 11:44:07;;;;;;;13.82;12.35;;;16.00;75.10;;;;;;5059101;28;20500;-49
2023/05/06 11:46:34;;;;;;;14.57;12.13;;;16.10;73.90;;;;;;5066435;28;20036;-46
2023/05/06 11:49:01;;;;;;;15.23;12.18;;;15.90;75.80;;;;;;5066709;28;20082;-48
2023/05/06 11:51:28;;;;;;;13.43;12.05;;;15.80;74.90;;;;;;5067145;28;20027;-47
2023/05/06 11:54:09;;;;;;;12.23;11.05;;;15.60;75.20;;;;;;5066225;28;20480;-47
2023/05/06 11:56:52;;;;;;;14.73;12.60;;;15.50;76.90;;;;;;5065976;28;20112;-46
2023/05/06 11:59:27;;;;;;;14.60;13.18;;;15.30;76.10;;;;;;5053586;28;20040;-46
2023/05/06 12:01:56;;;;;;;14.90;13.52;;;15.40;77.30;;;;;;5060592;28;20040;-46
2023/05/06 12:04:22;;;;;;;17.50;13.55;;;15.50;78.30;;;;;;5061081;28;20029;-47
2023/05/06 12:06:49;;;;;;;14.65;13.25;;;15.70;77.00;;;;;;5066562;28;20074;-51
2023/05/06 12:09:16;;;;;;;16.05;12.98;;;16.10;77.00;;;;;;5048969;28;20052;-46
2023/05/06 12:11:43;;;;;;;15.98;14.45;;;16.30;75.20;;;;;;5072101;28;20524;-48
2023/05/06 12:14:14;;;;;;;15.73;13.43;;;16.40;75.10;;;;;;5050618;28;20040;-48
2023/05/06 12:16:41;;;;;;;15.77;14.27;;;16.30;75.90;;;;;;5066426;28;20051;-51
2023/05/06 12:19:08;;;;;;;13.50;12.23;;;16.20;75.60;;;;;;5059828;28;20024;-47
2023/05/06 12:21:40;;;;;;;13.93;12.52;;;16.00;74.60;;;;;;5063855;28;20362;-50
2023/05/06 12:24:06;;;;;;;14.90;13.25;;;15.90;75.70;;;;;;5059708;28;20122;-47
2023/05/06 12:26:47;;;;;;;14.10;12.75;;;15.80;75.10;;;;;;5058058;28;20338;-46
2023/05/06 12:29:16;;;;;;;14.43;13.00;;;16.10;75.10;;;;;;5062382;28;20024;-49
2023/05/06 12:31:48;;;;;;;14.25;12.85;;;16.30;76.20;;;;;;5051888;28;20029;-49
2023/05/06 12:34:17;;;;;;;13.75;12.35;;;16.30;75.00;;;;;;5063603;28;20017;-47
2023/05/06 12:36:46;;;;;;;14.02;12.55;;;16.40;76.20;;;;;;5062349;28;20021;-49
2023/05/06 12:39:13;;;;;;;13.00;11.52;;;16.40;74.10;;;;;;5062455;28;20032;-49